createdAt,value
2022-08-10T00:01:52.284Z,5.00
2022-08-10T00:04:24.794Z,5.00
2022-08-10T00:06:55.531Z,5.60
2022-08-10T00:09:25.497Z,5.10
2022-08-10T00:11:53.425Z,5.10
2022-08-10T00:14:21.486Z,4.90
2022-08-10T00:16:49.688Z,4.90
2022-08-10T00:19:18.335Z,5.10
2022-08-10T00:21:47.370Z,5.20
2022-08-10T00:24:16.334Z,5.20
2022-08-10T00:27:52.007Z,5.20
2022-08-10T00:29:32.490Z,5.40
2022-08-10T00:32:00.458Z,5.90
2022-08-10T00:34:30.076Z,5.30
2022-08-10T00:36:59.171Z,5.20
2022-08-10T00:39:28.767Z,6.10
2022-08-10T00:42:06.866Z,5.20
2022-08-10T00:44:40.449Z,5.10
2022-08-10T00:47:16.278Z,5.10
2022-08-10T00:49:57.725Z,5.10
2022-08-10T00:52:27.042Z,5.20
2022-08-10T00:54:55.755Z,5.30
2022-08-10T00:57:25.583Z,5.30
2022-08-10T00:59:58.410Z,5.60
2022-08-10T01:02:32.511Z,4.80
2022-08-10T01:05:05.222Z,5.50
2022-08-10T01:08:01.532Z,5.40
2022-08-10T01:10:38.935Z,5.50
2022-08-10T01:13:30.919Z,4.80
2022-08-10T01:16:05.481Z,5.30
2022-08-10T01:18:42.657Z,4.80
2022-08-10T01:21:56.580Z,5.00
2022-08-10T01:24:43.643Z,5.20
2022-08-10T01:27:44.495Z,5.20
2022-08-10T01:30:14.413Z,5.20
2022-08-10T01:33:00.886Z,4.70
2022-08-10T01:35:53.184Z,4.80
2022-08-10T01:38:29.044Z,5.00
2022-08-10T01:41:11.150Z,4.90
2022-08-10T01:43:54.165Z,5.30
2022-08-10T01:46:24.488Z,5.40
2022-08-10T01:48:56.007Z,5.10
2022-08-10T01:51:31.197Z,4.90
2022-08-10T01:54:02.564Z,5.30
2022-08-10T01:56:33.605Z,5.00
2022-08-10T01:59:09.557Z,5.00
2022-08-10T02:01:42.087Z,5.20
2022-08-10T02:04:12.289Z,5.40
2022-08-10T02:06:51.265Z,6.00
2022-08-10T02:09:22.187Z,5.50
2022-08-10T02:11:55.732Z,5.30
2022-08-10T02:14:42.025Z,6.00
2022-08-10T02:17:57.599Z,5.90
2022-08-10T02:20:07.769Z,5.80
2022-08-10T02:22:39.318Z,5.30
2022-08-10T02:25:09.102Z,5.10
2022-08-10T02:27:40.909Z,5.90
2022-08-10T02:30:10.403Z,5.70
2022-08-10T02:32:39.135Z,5.60
2022-08-10T02:35:14.776Z,5.90
2022-08-10T02:37:53.290Z,5.60
2022-08-10T02:45:02.054Z,6.20
2022-08-10T02:45:21.241Z,6.10
2022-08-10T02:46:20.962Z,5.50
2022-08-10T02:48:59.758Z,5.70
2022-08-10T02:52:06.408Z,7.00
2022-08-10T02:54:32.948Z,5.70
2022-08-10T02:57:14.278Z,5.90
2022-08-10T02:59:45.966Z,6.40
2022-08-10T03:02:20.115Z,5.30
2022-08-10T03:04:55.542Z,5.60
2022-08-10T03:07:43.698Z,6.00
2022-08-10T03:10:21.583Z,5.20
2022-08-10T03:12:52.787Z,6.30
2022-08-10T03:15:22.288Z,5.10
2022-08-10T03:17:57.637Z,5.00
2022-08-10T03:20:37.896Z,5.70
2022-08-10T03:23:13.525Z,5.40
2022-08-10T03:25:53.396Z,5.90
2022-08-10T03:28:24.771Z,7.00
2022-08-10T03:30:53.614Z,6.30
2022-08-10T03:33:22.820Z,5.80
2022-08-10T03:36:43.118Z,6.00
2022-08-10T03:38:44.535Z,5.50
2022-08-10T03:41:16.322Z,5.10
2022-08-10T03:43:49.775Z,6.00
2022-08-10T03:46:21.340Z,6.40
2022-08-10T03:48:53.344Z,6.20
2022-08-10T03:51:22.542Z,7.80
2022-08-10T03:54:04.308Z,5.50
2022-08-10T03:59:10.978Z,6.20
2022-08-10T04:02:46.317Z,6.40
2022-08-10T04:04:27.622Z,5.90
2022-08-10T04:07:01.518Z,6.10
2022-08-10T04:09:56.016Z,6.60
2022-08-10T04:12:20.597Z,6.50
2022-08-10T04:14:51.181Z,7.00
2022-08-10T04:17:59.366Z,6.40
2022-08-10T04:20:38.346Z,6.70
2022-08-10T04:23:18.750Z,6.50
2022-08-10T04:25:46.692Z,6.10
2022-08-10T04:28:14.752Z,7.00
2022-08-10T04:30:44.698Z,6.70
2022-08-10T04:33:15.243Z,7.00
2022-08-10T04:35:45.331Z,8.30
2022-08-10T04:38:14.725Z,7.60
2022-08-10T04:40:43.719Z,7.00
2022-08-10T04:43:13.067Z,7.70
2022-08-10T04:45:50.566Z,7.00
2022-08-10T04:48:42.474Z,7.10
2022-08-10T04:51:18.002Z,7.60
2022-08-10T04:54:04.905Z,7.00
2022-08-10T04:56:37.479Z,7.70
2022-08-10T04:59:06.927Z,6.80
2022-08-10T05:02:13.543Z,7.70
2022-08-10T05:04:35.529Z,7.60
2022-08-10T05:07:09.258Z,6.90
2022-08-10T05:10:04.247Z,7.60
2022-08-10T05:12:29.534Z,8.10
2022-08-10T05:14:57.450Z,7.60
2022-08-10T05:17:25.179Z,7.60
2022-08-10T05:20:02.065Z,7.80
2022-08-10T05:22:43.738Z,7.40
2022-08-10T05:25:14.672Z,8.10
2022-08-10T05:27:43.515Z,7.50
2022-08-10T05:30:15.733Z,7.50
2022-08-10T05:32:56.434Z,7.30
2022-08-10T05:38:12.291Z,7.00
2022-08-10T05:40:46.651Z,6.50
2022-08-10T05:46:17.246Z,6.30
2022-08-10T05:48:54.953Z,6.40
2022-08-10T05:51:23.419Z,7.10
2022-08-10T05:54:01.207Z,7.10
2022-08-10T05:56:54.834Z,6.80
2022-08-10T06:00:29.531Z,6.30
2022-08-10T06:02:41.796Z,7.80
2022-08-10T06:05:12.140Z,7.00
2022-08-10T06:08:01.314Z,6.50
2022-08-10T06:10:32.448Z,6.70
2022-08-10T06:13:26.751Z,6.20
2022-08-10T06:16:02.669Z,6.70
2022-08-10T06:18:31.177Z,6.80
2022-08-10T06:21:00.835Z,6.40
2022-08-10T06:23:30.509Z,6.50
2022-08-10T06:26:11.254Z,6.80
2022-08-10T06:29:02.800Z,6.30
2022-08-10T06:31:47.905Z,6.40
2022-08-10T06:34:27.036Z,6.10
2022-08-10T06:36:57.933Z,6.90
2022-08-10T06:39:34.932Z,6.80
2022-08-10T06:42:29.539Z,6.10
2022-08-10T06:45:01.899Z,6.50
2022-08-10T06:47:54.153Z,6.60
2022-08-10T06:50:45.391Z,6.80
2022-08-10T06:53:18.306Z,5.90
2022-08-10T06:55:56.504Z,6.60
2022-08-10T06:58:29.105Z,6.90
2022-08-10T07:00:57.002Z,7.30
2022-08-10T07:03:34.193Z,7.10
2022-08-10T07:06:04.793Z,6.50
2022-08-10T07:08:34.444Z,6.50
2022-08-10T07:11:03.667Z,6.10
2022-08-10T07:14:14.259Z,6.20
2022-08-10T07:16:22.079Z,5.70
2022-08-10T07:18:49.951Z,5.00
2022-08-10T07:21:18.109Z,5.60
2022-08-10T07:23:57.740Z,5.10
2022-08-10T07:26:30.963Z,5.00
2022-08-10T07:29:00.619Z,5.00
2022-08-10T07:31:54.895Z,5.10
2022-08-10T07:34:21.676Z,4.80
2022-08-10T07:37:03.204Z,4.60
2022-08-10T07:40:02.103Z,4.10
2022-08-10T07:44:53.431Z,4.40
2022-08-10T07:47:46.187Z,4.60
2022-08-10T07:50:19.162Z,4.20
2022-08-10T07:52:48.931Z,5.60
2022-08-10T07:55:19.638Z,4.30
2022-08-10T07:58:08.917Z,3.90
2022-08-10T08:00:37.928Z,4.00
2022-08-10T08:03:07.676Z,3.90
2022-08-10T08:05:59.054Z,3.90
2022-08-10T08:08:24.936Z,3.70
2022-08-10T08:10:58.135Z,3.60
2022-08-10T08:13:27.876Z,4.40
2022-08-10T08:16:20.612Z,4.60
2022-08-10T08:19:03.634Z,5.20
2022-08-10T08:24:08.541Z,3.30
2022-08-10T08:24:32.374Z,4.00
2022-08-10T08:27:03.503Z,5.40
2022-08-10T08:29:38.317Z,5.50
2022-08-10T08:32:06.955Z,3.60
2022-08-10T08:34:38.725Z,8.40
2022-08-10T08:37:09.954Z,6.70
2022-08-10T08:39:38.624Z,5.30
2022-08-10T08:42:18.308Z,3.90
2022-08-10T08:45:23.326Z,4.40
2022-08-10T08:48:10.120Z,4.30
2022-08-10T08:51:01.875Z,4.00
2022-08-10T08:54:07.737Z,3.90
2022-08-10T08:56:50.196Z,7.20
2022-08-10T08:59:31.267Z,4.70
2022-08-10T09:02:05.569Z,7.70
2022-08-10T09:04:55.833Z,5.80
2022-08-10T09:08:01.746Z,4.60
2022-08-10T09:11:19.714Z,3.30
2022-08-10T09:14:17.218Z,3.90
2022-08-10T09:17:03.418Z,3.30
2022-08-10T09:19:49.625Z,3.80
2022-08-10T09:22:57.460Z,2.80
2022-08-10T09:25:34.420Z,3.00
2022-08-10T09:28:08.093Z,2.70
2022-08-10T09:31:10.196Z,4.50
2022-08-10T09:36:21.166Z,2.70
2022-08-10T09:37:08.668Z,2.30
2022-08-10T09:40:56.111Z,3.10
2022-08-10T09:43:26.199Z,2.80
2022-08-10T09:46:33.452Z,2.90
2022-08-10T09:49:10.717Z,2.60
2022-08-10T09:52:02.040Z,2.70
2022-08-10T09:54:54.300Z,2.30
2022-08-10T10:00:30.837Z,3.40
2022-08-10T10:03:18.345Z,2.80
2022-08-10T10:06:03.472Z,2.50
2022-08-10T10:09:10.054Z,2.90
2022-08-10T10:12:09.723Z,2.80
2022-08-10T10:15:24.681Z,2.40
2022-08-10T10:18:00.417Z,2.40
2022-08-10T10:20:49.851Z,2.40
2022-08-10T10:23:51.395Z,2.10
2022-08-10T10:29:58.249Z,2.50
2022-08-10T10:32:57.305Z,2.50
2022-08-10T10:35:50.354Z,2.10
2022-08-10T10:38:21.487Z,1.90
2022-08-10T10:40:59.459Z,1.90
2022-08-10T10:43:57.926Z,1.80
2022-08-10T10:46:52.107Z,2.00
2022-08-10T10:49:31.253Z,2.10
2022-08-10T10:52:20.507Z,2.20
2022-08-10T10:55:15.312Z,2.00
2022-08-10T10:58:07.679Z,2.00
2022-08-10T11:00:58.153Z,2.00
2022-08-10T11:03:44.329Z,2.10
2022-08-10T11:06:40.839Z,1.80
2022-08-10T11:10:05.187Z,2.10
2022-08-10T11:12:25.422Z,1.90
2022-08-10T11:15:42.875Z,1.70
2022-08-10T11:18:35.825Z,1.90
2022-08-10T11:21:31.597Z,2.00
2022-08-10T11:24:42.639Z,1.90
2022-08-10T11:27:17.424Z,2.10
2022-08-10T11:30:11.087Z,2.40
2022-08-10T11:33:12.621Z,2.40
2022-08-10T11:35:48.587Z,1.80
2022-08-10T11:39:11.136Z,1.50
2022-08-10T11:42:07.691Z,1.80
2022-08-10T11:44:59.934Z,3.30
2022-08-10T11:47:52.652Z,2.50
2022-08-10T11:50:23.062Z,2.10
2022-08-10T11:53:11.752Z,2.20
2022-08-10T11:55:41.973Z,2.70
2022-08-10T11:58:31.715Z,2.70
2022-08-10T12:01:04.093Z,2.00
2022-08-10T12:03:35.017Z,2.10
2022-08-10T12:06:05.819Z,1.80
2022-08-10T12:10:03.550Z,1.90
2022-08-10T12:11:26.523Z,2.10
2022-08-10T12:14:22.627Z,2.50
2022-08-10T12:16:57.505Z,1.90
2022-08-10T12:19:58.996Z,2.10
2022-08-10T12:22:34.098Z,2.10
2022-08-10T12:25:10.735Z,2.10
2022-08-10T12:27:52.552Z,2.30
2022-08-10T12:30:29.488Z,1.30
2022-08-10T12:33:04.555Z,1.70
2022-08-10T12:36:16.935Z,1.30
2022-08-10T12:39:22.206Z,1.90
2022-08-10T12:42:03.259Z,1.90
2022-08-10T12:44:50.140Z,2.00
2022-08-10T12:47:31.708Z,1.80
2022-08-10T12:50:32.876Z,1.90
2022-08-10T12:53:13.742Z,1.60
2022-08-10T12:55:42.666Z,1.60
2022-08-10T12:58:57.396Z,2.00
2022-08-10T13:01:16.081Z,2.00
2022-08-10T13:04:22.814Z,1.60
2022-08-10T13:06:42.634Z,1.80
2022-08-10T13:09:13.550Z,1.30
2022-08-10T13:12:38.094Z,1.50
2022-08-10T13:14:54.073Z,1.30
2022-08-10T13:17:32.539Z,1.70
2022-08-10T13:20:34.309Z,1.90
2022-08-10T13:23:10.225Z,1.50
2022-08-10T13:25:45.468Z,1.40
2022-08-10T13:28:35.790Z,1.10
2022-08-10T13:31:11.360Z,1.40
2022-08-10T13:34:43.131Z,7.10
2022-08-10T13:37:02.485Z,2.60
2022-08-10T13:39:59.424Z,2.00
2022-08-10T13:42:32.053Z,1.50
2022-08-10T13:45:09.204Z,1.60
2022-08-10T13:47:48.721Z,1.40
2022-08-10T13:50:33.129Z,1.50
2022-08-10T13:53:11.485Z,1.30
2022-08-10T13:55:57.350Z,1.40
2022-08-10T13:58:32.039Z,1.40
2022-08-10T14:01:03.013Z,1.70
2022-08-10T14:03:37.532Z,1.70
2022-08-10T14:06:07.534Z,1.70
2022-08-10T14:08:37.979Z,1.50
2022-08-10T14:11:12.363Z,1.70
2022-08-10T14:14:04.268Z,1.80
2022-08-10T14:16:34.743Z,1.60
2022-08-10T14:19:10.130Z,1.90
2022-08-10T14:21:40.459Z,1.30
2022-08-10T14:24:24.637Z,1.70
2022-08-10T14:27:02.506Z,1.70
2022-08-10T14:29:31.629Z,1.80
2022-08-10T14:32:02.541Z,1.90
2022-08-10T14:36:16.226Z,1.40
2022-08-10T14:37:30.000Z,1.30
2022-08-10T14:40:11.759Z,1.30
2022-08-10T14:43:11.705Z,1.40
2022-08-10T14:45:45.145Z,2.10
2022-08-10T14:48:23.222Z,1.90
2022-08-10T14:51:02.604Z,2.00
2022-08-10T14:53:35.356Z,2.60
2022-08-10T14:56:08.462Z,1.80
2022-08-10T14:58:59.110Z,1.70
2022-08-10T15:04:23.886Z,2.00
2022-08-10T15:06:57.621Z,1.60
2022-08-10T15:09:59.682Z,1.60
2022-08-10T15:12:27.065Z,1.70
2022-08-10T15:15:00.830Z,1.30
2022-08-10T15:17:34.798Z,1.60
2022-08-10T15:20:30.042Z,1.60
2022-08-10T15:23:05.995Z,1.60
2022-08-10T15:25:39.815Z,1.60
2022-08-10T15:29:08.464Z,1.60
2022-08-10T15:31:18.495Z,2.40
2022-08-10T15:34:10.931Z,1.90
2022-08-10T15:37:39.702Z,2.00
2022-08-10T15:40:25.913Z,1.60
2022-08-10T15:43:20.909Z,1.90
2022-08-10T15:46:04.779Z,1.60
2022-08-10T15:48:48.284Z,1.60
2022-08-10T15:51:23.026Z,1.40
2022-08-10T15:54:03.196Z,1.50
2022-08-10T15:56:39.893Z,1.60
2022-08-10T15:59:17.227Z,1.90
2022-08-10T16:02:14.287Z,1.80
2022-08-10T16:04:57.554Z,1.30
2022-08-10T16:07:46.007Z,1.70
2022-08-10T16:10:28.119Z,2.20
2022-08-10T16:14:00.814Z,2.10
2022-08-10T16:15:56.238Z,1.70
2022-08-10T16:18:30.173Z,1.80
2022-08-10T16:21:00.195Z,1.60
2022-08-10T16:24:13.089Z,2.00
2022-08-10T16:26:46.568Z,1.60
2022-08-10T16:29:20.013Z,1.90
2022-08-10T16:31:59.717Z,2.10
2022-08-10T16:34:30.838Z,2.50
2022-08-10T16:37:04.133Z,1.90
2022-08-10T16:39:57.650Z,1.60
2022-08-10T16:42:31.218Z,1.20
2022-08-10T16:45:15.167Z,1.20
2022-08-10T16:47:51.844Z,1.60
2022-08-10T16:50:27.622Z,1.60
2022-08-10T16:53:00.460Z,1.60
2022-08-10T16:55:48.264Z,1.10
2022-08-10T16:58:25.323Z,1.20
2022-08-10T17:01:00.927Z,2.00
2022-08-10T17:04:05.555Z,1.60
2022-08-10T17:06:42.522Z,1.90
2022-08-10T17:09:19.435Z,1.90
2022-08-10T17:11:51.714Z,2.10
2022-08-10T17:14:24.260Z,1.90
2022-08-10T17:17:00.426Z,2.30
2022-08-10T17:19:35.024Z,2.20
2022-08-10T17:22:10.892Z,2.50
2022-08-10T17:25:06.114Z,2.70
2022-08-10T17:28:04.125Z,2.80
2022-08-10T17:33:19.757Z,2.30
2022-08-10T17:35:51.668Z,2.30
2022-08-10T17:38:25.068Z,2.00
2022-08-10T17:41:08.547Z,2.10
2022-08-10T17:44:00.763Z,2.40
2022-08-10T17:46:27.444Z,2.20
2022-08-10T17:48:55.810Z,2.10
2022-08-10T17:51:28.686Z,2.20
2022-08-10T17:54:00.684Z,2.90
2022-08-10T17:56:33.644Z,3.40
2022-08-10T18:02:01.246Z,3.30
2022-08-10T18:04:41.212Z,3.10
2022-08-10T18:07:11.668Z,3.10
2022-08-10T18:09:44.474Z,2.50
2022-08-10T18:12:19.083Z,2.80
2022-08-10T18:14:49.806Z,2.70
2022-08-10T18:17:23.511Z,2.30
2022-08-10T18:19:58.220Z,2.70
2022-08-10T18:22:27.998Z,3.00
2022-08-10T18:24:58.965Z,2.50
2022-08-10T18:28:01.177Z,2.60
2022-08-10T18:30:19.304Z,2.30
2022-08-10T18:32:53.468Z,2.80
2022-08-10T18:35:34.591Z,2.80
2022-08-10T18:38:06.762Z,3.10
2022-08-10T18:40:38.546Z,2.60
2022-08-10T18:44:05.003Z,3.20
2022-08-10T18:46:02.829Z,3.10
2022-08-10T18:48:41.014Z,4.30
2022-08-10T18:51:11.412Z,3.70
2022-08-10T18:53:50.748Z,3.70
2022-08-10T18:56:21.195Z,3.70
2022-08-10T18:59:06.385Z,3.60
2022-08-10T19:01:55.898Z,3.70
2022-08-10T19:05:30.064Z,4.10
2022-08-10T19:08:33.061Z,4.70
2022-08-10T19:11:13.880Z,6.20
2022-08-10T19:13:59.624Z,7.30
2022-08-10T19:17:05.622Z,6.50
2022-08-10T19:19:45.444Z,6.40
2022-08-10T19:22:25.905Z,7.10
2022-08-10T19:25:05.891Z,6.00
2022-08-10T19:27:46.223Z,6.30
2022-08-10T19:30:15.865Z,6.30
2022-08-10T19:33:04.669Z,8.00
2022-08-10T19:36:12.265Z,7.10
2022-08-10T19:38:51.304Z,5.70
2022-08-10T19:41:32.673Z,4.70
2022-08-10T19:44:26.350Z,4.50
2022-08-10T19:47:06.181Z,4.80
2022-08-10T19:50:01.949Z,4.60
2022-08-10T19:52:45.240Z,4.60
2022-08-10T19:55:25.093Z,4.50
2022-08-10T19:58:02.906Z,5.10
2022-08-10T20:01:03.430Z,5.00
2022-08-10T20:03:50.318Z,5.20
2022-08-10T20:06:40.008Z,4.20
2022-08-10T20:09:16.523Z,5.20
2022-08-10T20:12:03.413Z,4.30
2022-08-10T20:14:42.598Z,4.80
2022-08-10T20:17:51.549Z,5.40
2022-08-10T20:20:36.117Z,5.30
2022-08-10T20:23:21.598Z,5.00
2022-08-10T20:26:01.308Z,5.60
2022-08-10T20:28:43.794Z,5.30
2022-08-10T20:31:17.628Z,4.30
2022-08-10T20:34:01.481Z,5.10
2022-08-10T20:36:39.406Z,5.50
2022-08-10T20:39:16.602Z,4.80
2022-08-10T20:41:53.936Z,5.00
2022-08-10T20:44:27.630Z,5.20
2022-08-10T20:47:18.675Z,5.10
2022-08-10T20:50:06.565Z,5.40
2022-08-10T20:52:35.873Z,4.90
2022-08-10T20:55:09.905Z,5.40
2022-08-10T20:57:57.592Z,4.90
2022-08-10T21:01:09.944Z,4.90
2022-08-10T21:03:44.635Z,5.50
2022-08-10T21:06:44.575Z,5.60
2022-08-10T21:09:32.837Z,5.00
2022-08-10T21:12:34.303Z,5.30
2022-08-10T21:15:20.835Z,5.60
2022-08-10T21:18:34.526Z,5.00
2022-08-10T21:21:41.545Z,5.60
2022-08-10T21:24:25.731Z,5.00
2022-08-10T21:29:56.124Z,5.20
2022-08-10T21:32:30.306Z,5.00
2022-08-10T21:35:07.913Z,5.10
2022-08-10T21:37:58.763Z,5.40
2022-08-10T21:41:18.947Z,5.40
2022-08-10T21:44:16.810Z,5.80
2022-08-10T21:47:43.490Z,5.40
2022-08-10T21:50:45.739Z,5.10
2022-08-10T21:53:46.076Z,6.40
2022-08-10T21:56:50.693Z,5.60
2022-08-10T21:59:58.920Z,5.40
2022-08-10T22:02:51.080Z,6.20
2022-08-10T22:05:53.685Z,6.40
2022-08-10T22:08:45.065Z,5.60
2022-08-10T22:11:39.185Z,6.40
2022-08-10T22:18:00.792Z,6.00
2022-08-10T22:20:57.687Z,6.50
2022-08-10T22:23:44.074Z,6.00
2022-08-10T22:30:11.421Z,6.50
2022-08-10T22:31:26.142Z,6.90
2022-08-10T22:31:28.037Z,6.90
2022-08-10T22:33:06.871Z,6.80
2022-08-10T22:36:16.536Z,6.10
2022-08-10T22:40:10.039Z,5.90
2022-08-10T22:42:58.768Z,6.10
2022-08-10T22:45:55.297Z,6.20
2022-08-10T22:48:41.553Z,6.40
2022-08-10T22:51:16.610Z,6.10
2022-08-10T22:54:30.878Z,7.30
2022-08-10T22:57:20.355Z,7.00
2022-08-10T22:59:49.685Z,6.70
2022-08-10T23:02:33.053Z,6.40
2022-08-10T23:05:05.813Z,6.30
2022-08-10T23:07:41.390Z,6.60
2022-08-10T23:10:11.914Z,6.20
2022-08-10T23:12:56.981Z,6.10
2022-08-10T23:15:55.511Z,6.20
2022-08-10T23:18:55.217Z,6.20
2022-08-10T23:21:28.661Z,5.30
2022-08-10T23:24:25.582Z,4.70
2022-08-10T23:26:55.155Z,5.50
2022-08-10T23:29:29.076Z,6.90
2022-08-10T23:32:07.531Z,5.40
2022-08-10T23:34:37.060Z,5.40
2022-08-10T23:37:09.128Z,5.40
2022-08-10T23:39:40.772Z,6.20
2022-08-10T23:42:13.002Z,6.10
2022-08-10T23:44:44.282Z,5.90
2022-08-10T23:47:15.973Z,5.90
2022-08-10T23:49:45.353Z,5.10
2022-08-10T23:52:18.597Z,5.20
2022-08-10T23:54:49.906Z,5.30
2022-08-10T23:57:21.723Z,5.30
2022-08-10T23:59:52.378Z,5.10
